Time;durP1;ratioP1;P1;durP2;ratioP2;P2;SDS_P1;SDS_P2;PMS_P1;PMS_P2;Temp;Humidity;BMP_temperature;BMP_pressure;BME280_temperature;BME280_humidity;BME280_pressure;Samples;Min_cycle;Max_cycle;Signal;HPM_P1;HPM_P2
2023/09/10 00:01:43;;;;;;;10.83;9.63;;;;;;;;;;5052819;28;20916;-76
2023/09/10 00:04:10;;;;;;;10.73;9.60;;;;;;;;;;5052760;28;20437;-76
2023/09/10 00:06:37;;;;;;;10.53;9.63;;;;;;;;;;5053091;28;20473;-76
2023/09/10 00:09:08;;;;;;;12.50;11.30;;;;;;;;;;5052716;28;20433;-76
2023/09/10 00:11:35;;;;;;;13.23;10.80;;;;;;;;;;5052719;28;20512;-76
2023/09/10 00:14:04;;;;;;;11.33;10.23;;;;;;;;;;5053072;28;20491;-76
2023/09/10 00:16:31;;;;;;;13.77;11.97;;;;;;;;;;5052722;28;20503;-76
2023/09/10 00:18:58;;;;;;;13.30;12.00;;;;;;;;;;5052749;28;20473;-76
2023/09/10 00:21:26;;;;;;;12.73;11.53;;;;;;;;;;5053070;28;20857;-76
2023/09/10 00:23:53;;;;;;;15.40;13.90;;;;;;;;;;5052978;28;20433;-76
2023/09/10 00:26:20;;;;;;;14.10;12.60;;;;;;;;;;5052410;28;20537;-76
2023/09/10 00:28:49;;;;;;;12.73;11.53;;;;;;;;;;5052945;28;20850;-76
2023/09/10 00:31:18;;;;;;;14.10;12.80;;;;;;;;;;5052606;28;20956;-76
2023/09/10 00:33:46;;;;;;;12.50;11.20;;;;;;;;;;5052594;28;20499;-76
2023/09/10 00:36:13;;;;;;;12.63;11.37;;;;;;;;;;5052914;28;21071;-76
2023/09/10 00:38:40;;;;;;;11.57;10.47;;;;;;;;;;5056625;28;20429;-76
2023/09/10 00:41:07;;;;;;;12.80;11.50;;;;;;;;;;5056147;28;20469;-75
2023/09/10 00:43:35;;;;;;;15.33;12.53;;;;;;;;;;5056534;28;20421;-76
2023/09/10 00:46:03;;;;;;;14.73;12.57;;;;;;;;;;5056563;28;20507;-75
2023/09/10 00:48:32;;;;;;;30.07;13.30;;;;;;;;;;5056136;28;20477;-76
2023/09/10 00:50:59;;;;;;;18.93;12.60;;;;;;;;;;5056043;28;20444;-76
2023/09/10 00:53:27;;;;;;;14.50;13.10;;;;;;;;;;5056512;28;20464;-76
2023/09/10 00:55:54;;;;;;;13.50;11.80;;;;;;;;;;5055977;28;20437;-76
2023/09/10 00:58:21;;;;;;;15.60;12.20;;;;;;;;;;5055691;28;20524;-76
2023/09/10 01:00:49;;;;;;;15.80;12.00;;;;;;;;;;5056333;28;20433;-76
2023/09/10 01:03:16;;;;;;;13.50;12.20;;;;;;;;;;5056198;28;20433;-76
2023/09/10 01:05:45;;;;;;;13.03;11.70;;;;;;;;;;5056183;28;20495;-76
2023/09/10 01:08:12;;;;;;;14.33;12.93;;;;;;;;;;5055852;28;20437;-76
2023/09/10 01:10:43;;;;;;;14.70;13.30;;;;;;;;;;5055726;28;20908;-76
2023/09/10 01:13:13;;;;;;;13.30;11.60;;;;;;;;;;5055981;28;20480;-76
2023/09/10 01:15:42;;;;;;;13.00;11.80;;;;;;;;;;5055662;28;20426;-76
2023/09/10 01:18:12;;;;;;;14.37;13.00;;;;;;;;;;5055515;28;20513;-76
2023/09/10 01:20:58;;;;;;;13.60;12.30;;;;;;;;;;5055553;28;20900;-76
2023/09/10 01:23:31;;;;;;;11.27;10.27;;;;;;;;;;5055962;28;20421;-76
2023/09/10 01:26:00;;;;;;;12.13;10.53;;;;;;;;;;5055801;28;20454;-76
2023/09/10 01:28:27;;;;;;;12.77;10.70;;;;;;;;;;5055636;28;20877;-76
2023/09/10 01:30:54;;;;;;;13.17;11.93;;;;;;;;;;5055570;28;20746;-76
2023/09/10 01:33:29;;;;;;;13.23;11.83;;;;;;;;;;5055872;28;20494;-76
2023/09/10 01:36:03;;;;;;;13.10;11.50;;;;;;;;;;5055602;28;20422;-76
2023/09/10 01:38:37;;;;;;;13.30;12.00;;;;;;;;;;5055149;28;20469;-76
2023/09/10 01:41:08;;;;;;;14.97;12.20;;;;;;;;;;5055492;28;20454;-76
2023/09/10 01:43:35;;;;;;;14.13;12.80;;;;;;;;;;5055430;28;20513;-76
2023/09/10 01:46:03;;;;;;;13.13;11.83;;;;;;;;;;5055373;28;20495;-76
2023/09/10 01:48:31;;;;;;;11.50;10.40;;;;;;;;;;5054020;28;20437;-75
2023/09/10 01:50:58;;;;;;;12.00;10.90;;;;;;;;;;5055342;28;20480;-75
2023/09/10 01:53:25;;;;;;;12.63;11.43;;;;;;;;;;5055493;28;20477;-76
2023/09/10 01:55:52;;;;;;;12.77;11.53;;;;;;;;;;5055152;28;20434;-77
2023/09/10 01:58:21;;;;;;;12.90;11.60;;;;;;;;;;5055119;28;20527;-76
2023/09/10 02:00:48;;;;;;;14.73;13.30;;;;;;;;;;5055040;28;20487;-76
2023/09/10 02:03:15;;;;;;;12.80;11.67;;;;;;;;;;5055007;28;20462;-76
2023/09/10 02:05:43;;;;;;;13.70;12.30;;;;;;;;;;5054935;28;20469;-76
2023/09/10 02:08:10;;;;;;;13.20;11.30;;;;;;;;;;5054637;28;20932;-76
2023/09/10 02:10:37;;;;;;;13.37;11.93;;;;;;;;;;5055096;28;20477;-76
2023/09/10 02:13:05;;;;;;;13.17;11.97;;;;;;;;;;5055018;28;20448;-76
2023/09/10 02:15:33;;;;;;;13.27;11.97;;;;;;;;;;5054418;28;20456;-76
2023/09/10 02:18:00;;;;;;;14.83;13.10;;;;;;;;;;5054692;28;20558;-76
2023/09/10 02:20:28;;;;;;;12.30;11.10;;;;;;;;;;5054338;28;20469;-76
2023/09/10 02:22:55;;;;;;;12.37;11.10;;;;;;;;;;5054673;28;20437;-77
2023/09/10 02:25:22;;;;;;;12.43;11.20;;;;;;;;;;5054208;28;20495;-76
2023/09/10 02:27:49;;;;;;;16.43;10.50;;;;;;;;;;5054220;28;20469;-76
2023/09/10 02:30:17;;;;;;;12.27;11.07;;;;;;;;;;5054582;28;20433;-76
2023/09/10 02:32:45;;;;;;;14.17;12.77;;;;;;;;;;5054096;28;21057;-76
2023/09/10 02:35:12;;;;;;;13.10;11.77;;;;;;;;;;5054118;28;20433;-76
2023/09/10 02:37:40;;;;;;;16.17;11.83;;;;;;;;;;5054384;28;20504;-76
2023/09/10 02:40:09;;;;;;;14.27;12.37;;;;;;;;;;5054411;28;20809;-76
2023/09/10 02:42:37;;;;;;;19.63;16.33;;;;;;;;;;5054243;28;20468;-76
2023/09/10 02:45:05;;;;;;;16.20;14.50;;;;;;;;;;5054244;28;20445;-77
2023/09/10 02:47:32;;;;;;;14.00;12.60;;;;;;;;;;5053900;28;20894;-76
2023/09/10 02:50:01;;;;;;;13.27;11.87;;;;;;;;;;5054172;28;20433;-76
2023/09/10 02:52:30;;;;;;;12.50;11.20;;;;;;;;;;5054140;28;20441;-76
2023/09/10 02:54:57;;;;;;;14.20;11.10;;;;;;;;;;5053997;28;20449;-76
2023/09/10 02:57:24;;;;;;;13.23;11.83;;;;;;;;;;5053591;28;20582;-76
2023/09/10 02:59:52;;;;;;;13.70;12.40;;;;;;;;;;5053965;28;20500;-76
2023/09/10 03:02:19;;;;;;;12.43;11.23;;;;;;;;;;5053939;28;20576;-76
2023/09/10 03:04:46;;;;;;;12.77;11.57;;;;;;;;;;5053952;28;20472;-76
2023/09/10 03:07:14;;;;;;;13.10;11.77;;;;;;;;;;5053601;28;20479;-76
2023/09/10 03:09:42;;;;;;;13.40;12.10;;;;;;;;;;5053536;28;20527;-76
2023/09/10 03:12:27;;;;;;;11.70;10.50;;;;;;;;;;5053461;28;20982;-76
2023/09/10 03:14:54;;;;;;;11.70;10.60;;;;;;;;;;5053508;28;20426;-76
2023/09/10 03:17:22;;;;;;;10.43;9.43;;;;;;;;;;5053381;28;20433;-76
2023/09/10 03:19:49;;;;;;;11.40;9.50;;;;;;;;;;5053357;28;20437;-76
2023/09/10 03:22:18;;;;;;;12.30;10.53;;;;;;;;;;5053699;28;20853;-76
2023/09/10 03:24:45;;;;;;;11.43;10.27;;;;;;;;;;5053510;28;20478;-76
2023/09/10 03:27:12;;;;;;;12.07;10.77;;;;;;;;;;5053548;28;20487;-75
2023/09/10 03:29:39;;;;;;;13.53;10.37;;;;;;;;;;5053234;28;20932;-75
2023/09/10 03:32:07;;;;;;;10.67;9.63;;;;;;;;;;5053503;28;20465;-76
2023/09/10 03:34:34;;;;;;;10.20;9.10;;;;;;;;;;5053314;28;20524;-76
2023/09/10 03:37:03;;;;;;;11.43;9.10;;;;;;;;;;5053516;28;20441;-76
2023/09/10 03:39:31;;;;;;;9.10;8.23;;;;;;;;;;5053022;28;21006;-76
2023/09/10 03:41:58;;;;;;;10.57;9.47;;;;;;;;;;5053246;28;20437;-76
2023/09/10 03:44:26;;;;;;;10.80;9.13;;;;;;;;;;5053570;28;20919;-76
2023/09/10 03:46:53;;;;;;;10.00;9.10;;;;;;;;;;5053021;28;20483;-76
2023/09/10 03:49:20;;;;;;;10.90;9.90;;;;;;;;;;5052996;28;20496;-76
2023/09/10 03:51:49;;;;;;;10.47;9.37;;;;;;;;;;5053327;28;20835;-76
2023/09/10 03:54:16;;;;;;;11.23;10.17;;;;;;;;;;5052891;28;20476;-76
2023/09/10 03:56:45;;;;;;;10.80;9.70;;;;;;;;;;5053127;28;20433;-76
2023/09/10 03:59:12;;;;;;;13.20;12.00;;;;;;;;;;5052794;28;20516;-76
2023/09/10 04:01:40;;;;;;;12.07;10.87;;;;;;;;;;5052845;28;20469;-76
2023/09/10 04:04:07;;;;;;;12.57;11.37;;;;;;;;;;5052836;28;20433;-76
2023/09/10 04:06:34;;;;;;;11.23;9.83;;;;;;;;;;5052850;28;20432;-76
2023/09/10 04:09:03;;;;;;;12.00;10.77;;;;;;;;;;5052759;28;21006;-76
2023/09/10 04:11:30;;;;;;;10.70;9.70;;;;;;;;;;5053535;28;20443;-76
2023/09/10 04:13:59;;;;;;;11.93;10.33;;;;;;;;;;5057071;28;20441;-76
2023/09/10 04:16:27;;;;;;;10.47;9.47;;;;;;;;;;5057159;28;20433;-76
2023/09/10 04:18:55;;;;;;;11.10;9.37;;;;;;;;;;5056890;28;20534;-76
2023/09/10 04:21:22;;;;;;;11.37;9.30;;;;;;;;;;5057007;28;20532;-76
2023/09/10 04:23:49;;;;;;;9.30;8.50;;;;;;;;;;5056530;28;20471;-76
2023/09/10 04:26:16;;;;;;;9.63;8.67;;;;;;;;;;5057071;28;20434;-76
2023/09/10 04:28:44;;;;;;;11.40;10.33;;;;;;;;;;5056566;28;20480;-76
2023/09/10 04:31:16;;;;;;;10.10;9.10;;;;;;;;;;5056680;28;20929;-76
2023/09/10 04:33:44;;;;;;;11.60;10.20;;;;;;;;;;5056766;28;20424;-76
2023/09/10 04:36:11;;;;;;;12.03;10.93;;;;;;;;;;5056718;28;20534;-76
2023/09/10 04:38:39;;;;;;;12.07;10.87;;;;;;;;;;5056474;28;20563;-76
2023/09/10 04:41:06;;;;;;;12.27;10.37;;;;;;;;;;5056514;28;20487;-76
2023/09/10 04:43:33;;;;;;;12.53;10.73;;;;;;;;;;5056465;28;20484;-76
2023/09/10 04:46:00;;;;;;;13.30;12.00;;;;;;;;;;5056516;28;20487;-76
2023/09/10 04:48:29;;;;;;;10.90;9.80;;;;;;;;;;5056189;28;20499;-76
2023/09/10 04:50:56;;;;;;;9.93;9.03;;;;;;;;;;5055928;28;20469;-76
2023/09/10 04:53:23;;;;;;;9.90;9.00;;;;;;;;;;5055655;28;20477;-76
2023/09/10 04:55:54;;;;;;;8.53;7.60;;;;;;;;;;5056129;28;20472;-76
2023/09/10 04:58:21;;;;;;;8.90;8.10;;;;;;;;;;5055624;28;20975;-76
2023/09/10 05:00:50;;;;;;;8.37;7.57;;;;;;;;;;5055971;28;20481;-76
2023/09/10 05:03:17;;;;;;;8.33;7.53;;;;;;;;;;5055638;28;20972;-76
2023/09/10 05:05:46;;;;;;;9.57;8.67;;;;;;;;;;5056126;28;20429;-76
2023/09/10 05:08:13;;;;;;;10.60;9.50;;;;;;;;;;5055937;28;20440;-76
2023/09/10 05:10:41;;;;;;;9.90;8.90;;;;;;;;;;5055420;28;20464;-76
2023/09/10 05:13:08;;;;;;;10.47;8.63;;;;;;;;;;5055798;28;20429;-76
2023/09/10 05:15:35;;;;;;;10.20;9.20;;;;;;;;;;5055798;28;20799;-76
2023/09/10 05:18:02;;;;;;;11.70;10.60;;;;;;;;;;5055589;28;20433;-76
2023/09/10 05:20:31;;;;;;;11.87;10.57;;;;;;;;;;5055301;28;20470;-76
2023/09/10 05:23:00;;;;;;;12.63;11.53;;;;;;;;;;5053862;28;20491;-76
2023/09/10 05:25:27;;;;;;;11.80;10.70;;;;;;;;;;5055146;28;20481;-76
2023/09/10 05:27:54;;;;;;;11.87;10.77;;;;;;;;;;5055173;28;20527;-76
2023/09/10 05:30:22;;;;;;;11.70;10.70;;;;;;;;;;5055472;28;20460;-76
2023/09/10 05:32:49;;;;;;;11.97;10.77;;;;;;;;;;5055164;28;20448;-76
2023/09/10 05:35:16;;;;;;;11.27;10.17;;;;;;;;;;5055417;28;20461;-76
2023/09/10 05:37:43;;;;;;;13.20;11.03;;;;;;;;;;5055007;28;20468;-76
2023/09/10 05:40:12;;;;;;;10.27;9.27;;;;;;;;;;5054987;28;20473;-76
2023/09/10 05:42:39;;;;;;;11.10;10.07;;;;;;;;;;5055274;28;20515;-76
2023/09/10 05:45:07;;;;;;;10.73;9.63;;;;;;;;;;5055209;28;20488;-76
2023/09/10 05:47:34;;;;;;;12.70;11.50;;;;;;;;;;5054785;28;20928;-76
2023/09/10 05:50:02;;;;;;;17.07;11.50;;;;;;;;;;5055229;28;20453;-76
2023/09/10 05:52:30;;;;;;;12.40;11.10;;;;;;;;;;5055130;28;20473;-76
2023/09/10 05:54:57;;;;;;;12.03;10.83;;;;;;;;;;5054741;28;20490;-76
2023/09/10 05:57:25;;;;;;;13.73;12.10;;;;;;;;;;5055014;28;20483;-76
2023/09/10 05:59:53;;;;;;;12.40;11.23;;;;;;;;;;5054672;28;20906;-76
2023/09/10 06:02:20;;;;;;;12.63;11.43;;;;;;;;;;5054967;28;20429;-77
2023/09/10 06:04:47;;;;;;;14.17;12.87;;;;;;;;;;5054502;28;20491;-76
2023/09/10 06:07:14;;;;;;;12.10;11.00;;;;;;;;;;5054779;28;20837;-76
2023/09/10 06:09:41;;;;;;;14.20;12.80;;;;;;;;;;5054657;28;20429;-76
2023/09/10 06:12:09;;;;;;;13.80;12.50;;;;;;;;;;5054352;28;20848;-76
2023/09/10 06:14:37;;;;;;;15.43;13.93;;;;;;;;;;5054327;28;20494;-76
2023/09/10 06:17:05;;;;;;;13.63;11.67;;;;;;;;;;5054280;28;20472;-76
2023/09/10 06:19:32;;;;;;;14.10;12.70;;;;;;;;;;5054092;28;20500;-76
2023/09/10 06:21:59;;;;;;;12.67;11.43;;;;;;;;;;5054499;28;20425;-76
2023/09/10 06:24:26;;;;;;;12.20;11.00;;;;;;;;;;5054417;28;20477;-76
2023/09/10 06:26:53;;;;;;;13.80;12.50;;;;;;;;;;5053992;28;20438;-76
2023/09/10 06:29:20;;;;;;;15.17;12.70;;;;;;;;;;5054397;28;20469;-76
2023/09/10 06:31:49;;;;;;;13.90;12.60;;;;;;;;;;5054058;28;20481;-76
2023/09/10 06:34:16;;;;;;;16.77;12.30;;;;;;;;;;5053527;28;20564;-76
2023/09/10 06:36:44;;;;;;;16.70;11.67;;;;;;;;;;5054323;28;20488;-76
2023/09/10 06:39:11;;;;;;;13.87;12.57;;;;;;;;;;5054093;28;20465;-76
2023/09/10 06:41:38;;;;;;;15.23;13.63;;;;;;;;;;5054028;28;20472;-76
2023/09/10 06:44:06;;;;;;;12.90;11.60;;;;;;;;;;5054131;28;20456;-76
2023/09/10 06:46:33;;;;;;;13.37;12.07;;;;;;;;;;5054002;28;20515;-76
2023/09/10 06:49:02;;;;;;;13.20;12.00;;;;;;;;;;5054238;28;20858;-77
2023/09/10 06:51:29;;;;;;;12.10;10.90;;;;;;;;;;5054054;28;20433;-76
2023/09/10 06:53:56;;;;;;;13.70;12.40;;;;;;;;;;5053648;28;20976;-75
2023/09/10 06:56:25;;;;;;;14.23;12.93;;;;;;;;;;5053853;28;20598;-76
2023/09/10 06:58:52;;;;;;;12.60;11.30;;;;;;;;;;5053914;28;20481;-77
2023/09/10 07:01:21;;;;;;;13.43;11.47;;;;;;;;;;5053505;28;20490;-76
2023/09/10 07:03:48;;;;;;;12.70;11.50;;;;;;;;;;5053746;28;20521;-76
2023/09/10 07:06:16;;;;;;;13.23;12.03;;;;;;;;;;5053740;28;20442;-76
2023/09/10 07:08:44;;;;;;;14.33;12.83;;;;;;;;;;5053686;28;20531;-76
2023/09/10 07:11:11;;;;;;;12.60;11.30;;;;;;;;;;5053203;28;20437;-76
2023/09/10 07:13:38;;;;;;;14.50;13.10;;;;;;;;;;5053551;28;20438;-74
2023/09/10 07:16:06;;;;;;;13.40;12.27;;;;;;;;;;5053233;28;20495;-76
2023/09/10 07:18:33;;;;;;;13.50;12.10;;;;;;;;;;5053047;28;20516;-76
2023/09/10 07:21:01;;;;;;;13.77;12.47;;;;;;;;;;5053217;28;20426;-76
2023/09/10 07:23:30;;;;;;;13.10;11.80;;;;;;;;;;5053031;28;20437;-77
2023/09/10 07:25:57;;;;;;;12.67;11.43;;;;;;;;;;5053325;28;20434;-74
2023/09/10 07:28:24;;;;;;;14.60;12.30;;;;;;;;;;5053435;28;20434;-74
2023/09/10 07:30:51;;;;;;;12.33;10.67;;;;;;;;;;5053027;28;20476;-74
2023/09/10 07:33:18;;;;;;;11.00;9.90;;;;;;;;;;5053012;28;20524;-74
2023/09/10 07:35:46;;;;;;;10.87;9.93;;;;;;;;;;5053325;28;20536;-74
2023/09/10 07:38:13;;;;;;;11.77;10.57;;;;;;;;;;5053245;28;20499;-74
2023/09/10 07:40:41;;;;;;;14.73;10.60;;;;;;;;;;5052754;28;20538;-74
2023/09/10 07:43:09;;;;;;;10.30;9.40;;;;;;;;;;5053294;28;20438;-74
2023/09/10 07:45:36;;;;;;;10.63;9.57;;;;;;;;;;5052623;28;20475;-74
2023/09/10 07:48:03;;;;;;;10.67;9.77;;;;;;;;;;5052654;28;20461;-75
2023/09/10 07:50:31;;;;;;;10.80;9.90;;;;;;;;;;5052917;28;21020;-75
2023/09/10 07:52:58;;;;;;;9.57;8.67;;;;;;;;;;5052769;28;20441;-75
2023/09/10 07:55:26;;;;;;;9.87;8.97;;;;;;;;;;5052908;28;20502;-75
2023/09/10 07:57:54;;;;;;;9.53;8.63;;;;;;;;;;5052595;28;20796;-74
2023/09/10 08:00:22;;;;;;;10.03;9.23;;;;;;;;;;5052679;28;20497;-75
2023/09/10 08:02:49;;;;;;;10.43;9.53;;;;;;;;;;5052615;28;20946;-74
2023/09/10 08:05:16;;;;;;;9.23;8.43;;;;;;;;;;5053037;28;20491;-75
2023/09/10 08:07:43;;;;;;;11.10;8.30;;;;;;;;;;5052726;28;20429;-75
2023/09/10 08:10:11;;;;;;;8.40;7.70;;;;;;;;;;5048143;28;20433;-75
2023/09/10 08:12:38;;;;;;;8.90;8.20;;;;;;;;;;5052522;28;20437;-76
2023/09/10 08:15:08;;;;;;;8.70;7.90;;;;;;;;;;5052884;28;20437;-76
2023/09/10 08:17:36;;;;;;;8.80;8.10;;;;;;;;;;5052046;28;20495;-76
2023/09/10 08:20:06;;;;;;;9.07;8.37;;;;;;;;;;5052080;28;20465;-76
2023/09/10 08:22:34;;;;;;;7.03;6.33;;;;;;;;;;5052886;28;20436;-76
2023/09/10 08:25:04;;;;;;;9.63;8.83;;;;;;;;;;5052527;28;20433;-76
2023/09/10 08:27:31;;;;;;;9.30;8.60;;;;;;;;;;5052769;28;20458;-76
2023/09/10 08:29:59;;;;;;;8.77;7.40;;;;;;;;;;5052725;28;20433;-76
2023/09/10 08:32:28;;;;;;;7.43;6.80;;;;;;;;;;5052320;28;20808;-76
2023/09/10 08:34:55;;;;;;;7.53;6.93;;;;;;;;;;5052725;28;20442;-76
2023/09/10 08:37:23;;;;;;;7.77;7.07;;;;;;;;;;5052320;28;20495;-76
2023/09/10 08:39:50;;;;;;;7.23;6.63;;;;;;;;;;5052703;28;20476;-76
2023/09/10 08:42:19;;;;;;;7.30;6.70;;;;;;;;;;5051870;28;20512;-77
2023/09/10 08:44:49;;;;;;;7.80;7.20;;;;;;;;;;5052554;28;20479;-76
2023/09/10 08:47:19;;;;;;;7.40;6.70;;;;;;;;;;5051838;28;20433;-76
2023/09/10 08:49:50;;;;;;;6.87;6.17;;;;;;;;;;5052156;28;20437;-76
2023/09/10 08:52:18;;;;;;;7.70;7.10;;;;;;;;;;5052553;28;20429;-76
2023/09/10 08:54:46;;;;;;;7.67;6.97;;;;;;;;;;5052648;28;20432;-76
2023/09/10 08:57:14;;;;;;;6.30;5.80;;;;;;;;;;5052139;28;20517;-77
2023/09/10 08:59:42;;;;;;;7.50;6.80;;;;;;;;;;5055456;28;20883;-76
2023/09/10 09:02:11;;;;;;;9.37;7.93;;;;;;;;;;5056095;28;20433;-77
2023/09/10 09:04:39;;;;;;;6.20;5.60;;;;;;;;;;5055639;28;20483;-76
2023/09/10 09:07:10;;;;;;;6.17;5.67;;;;;;;;;;5055890;28;20437;-76
2023/09/10 09:09:41;;;;;;;7.30;6.70;;;;;;;;;;5055546;28;20471;-76
2023/09/10 09:12:11;;;;;;;7.53;6.93;;;;;;;;;;5055390;28;20428;-76
2023/09/10 09:14:42;;;;;;;6.57;6.07;;;;;;;;;;5055817;28;20433;-77
2023/09/10 09:17:14;;;;;;;6.90;6.30;;;;;;;;;;5055506;28;20456;-76
2023/09/10 09:19:42;;;;;;;5.90;5.50;;;;;;;;;;5055707;28;20440;-76
2023/09/10 09:22:13;;;;;;;6.87;6.37;;;;;;;;;;5055646;28;20507;-76
2023/09/10 09:24:41;;;;;;;6.63;6.13;;;;;;;;;;5055362;28;20424;-76
2023/09/10 09:27:09;;;;;;;7.10;6.40;;;;;;;;;;5055472;28;20432;-76
2023/09/10 09:29:37;;;;;;;6.80;6.27;;;;;;;;;;5055617;28;20583;-77
2023/09/10 09:32:04;;;;;;;6.90;6.30;;;;;;;;;;5055547;28;20460;-76
2023/09/10 09:34:34;;;;;;;7.47;6.87;;;;;;;;;;5055130;28;20468;-76
2023/09/10 09:37:03;;;;;;;7.67;6.97;;;;;;;;;;5054519;28;20808;-76
2023/09/10 09:39:32;;;;;;;6.50;6.00;;;;;;;;;;5055062;28;20535;-76
2023/09/10 09:42:00;;;;;;;7.33;6.80;;;;;;;;;;5055013;28;20508;-76
2023/09/10 09:44:28;;;;;;;7.37;6.67;;;;;;;;;;5055182;28;20464;-75
2023/09/10 09:46:57;;;;;;;7.27;6.67;;;;;;;;;;5055370;28;20498;-75
2023/09/10 09:49:26;;;;;;;7.17;6.57;;;;;;;;;;5054991;28;20482;-75
2023/09/10 09:51:54;;;;;;;7.33;6.83;;;;;;;;;;5054946;28;20456;-75
2023/09/10 09:54:21;;;;;;;7.43;6.83;;;;;;;;;;5055014;28;20468;-76
2023/09/10 09:56:50;;;;;;;6.70;6.00;;;;;;;;;;5054494;28;20965;-75
2023/09/10 09:59:18;;;;;;;7.53;6.82;;;;;;;;;;5054652;28;20569;-76
2023/09/10 10:01:46;;;;;;;8.13;5.40;;;;;;;;;;5054811;28;20182;-75
2023/09/10 10:04:15;;;;;;;6.45;5.85;;;;;;;;;;5054874;28;20802;-76
2023/09/10 10:06:43;;;;;;;6.95;5.90;;;;;;;;;;5054205;28;20222;-75
2023/09/10 10:09:11;;;;;;;6.30;5.80;;;;;;;;;;5053945;28;20360;-76
2023/09/10 10:11:39;;;;;;;5.63;5.03;;;;;;;;;;5054601;28;20225;-76
2023/09/10 10:14:09;;;;;;;5.50;5.10;;;;;;;;;;5053958;28;20218;-75
2023/09/10 10:16:37;;;;;;;5.28;4.88;;;;;;;;;;5054132;28;20197;-76
2023/09/10 10:19:04;;;;;;;5.55;5.15;;;;;;;;;;5053891;28;20548;-76
2023/09/10 10:21:32;;;;;;;6.30;5.80;;;;;;;;;;5054369;28;20304;-76
2023/09/10 10:23:59;;;;;;;5.88;5.38;;;;;;;;;;5053923;28;20182;-76
2023/09/10 10:26:27;;;;;;;5.22;4.72;;;;;;;;;;5054065;28;20625;-76
2023/09/10 10:28:54;;;;;;;6.22;5.63;;;;;;;;;;5054245;28;20581;-76
2023/09/10 10:31:25;;;;;;;5.93;5.32;;;;;;;;;;5054533;28;20221;-75
2023/09/10 10:33:57;;;;;;;6.05;5.45;;;;;;;;;;5054219;28;20565;-75
2023/09/10 10:36:29;;;;;;;5.50;5.10;;;;;;;;;;5053981;28;20217;-75
2023/09/10 10:38:57;;;;;;;5.03;4.63;;;;;;;;;;5054246;28;20616;-75
2023/09/10 10:41:26;;;;;;;5.82;5.22;;;;;;;;;;5053740;28;20190;-76
2023/09/10 10:43:56;;;;;;;5.75;5.25;;;;;;;;;;5053601;28;20186;-76
2023/09/10 10:46:27;;;;;;;5.22;4.72;;;;;;;;;;5053818;28;20178;-76
2023/09/10 10:48:54;;;;;;;5.65;5.15;;;;;;;;;;5053612;28;20244;-76
2023/09/10 10:51:22;;;;;;;5.70;5.25;;;;;;;;;;5053837;28;20280;-76
2023/09/10 10:53:49;;;;;;;6.47;5.45;;;;;;;;;;5053451;28;20945;-75
2023/09/10 10:56:17;;;;;;;5.55;5.05;;;;;;;;;;5053448;28;20186;-76
2023/09/10 10:58:45;;;;;;;6.00;5.50;;;;;;;;;;5053523;28;20576;-75
2023/09/10 11:01:13;;;;;;;5.93;5.43;;;;;;;;;;5053863;28;20202;-76
2023/09/10 11:03:44;;;;;;;5.85;5.25;;;;;;;;;;5053629;28;20186;-76
2023/09/10 11:06:12;;;;;;;6.43;5.07;;;;;;;;;;5053420;28;20186;-76
2023/09/10 11:08:46;;;;;;;5.53;5.13;;;;;;;;;;5053836;28;20194;-76
2023/09/10 11:11:42;;;;;;;5.70;5.20;;;;;;;;;;5053408;28;20538;-76
2023/09/10 11:14:10;;;;;;;6.80;6.13;;;;;;;;;;5053430;28;20425;-75
2023/09/10 11:16:42;;;;;;;5.93;5.43;;;;;;;;;;5053216;28;20433;-75
2023/09/10 11:19:31;;;;;;;5.73;5.10;;;;;;;;;;5053089;28;20424;-76
2023/09/10 11:22:02;;;;;;;6.97;5.63;;;;;;;;;;5053033;28;20443;-76
2023/09/10 11:24:34;;;;;;;5.67;5.27;;;;;;;;;;5053076;28;20467;-76
2023/09/10 11:27:21;;;;;;;5.17;4.67;;;;;;;;;;5053024;28;20420;-77
2023/09/10 11:30:04;;;;;;;7.00;6.33;;;;;;;;;;5053050;28;20531;-76
2023/09/10 11:32:31;;;;;;;6.50;5.03;;;;;;;;;;5052718;28;20433;-76
2023/09/10 11:35:14;;;;;;;6.83;5.67;;;;;;;;;;5053036;28;20435;-76
2023/09/10 11:37:45;;;;;;;5.73;5.23;;;;;;;;;;5052375;28;20431;-76
2023/09/10 11:40:13;;;;;;;6.20;5.70;;;;;;;;;;5052902;28;20903;-77
2023/09/10 11:42:44;;;;;;;6.17;5.57;;;;;;;;;;5053153;28;20609;-76
2023/09/10 11:45:12;;;;;;;5.63;5.23;;;;;;;;;;5053100;28;20512;-76
2023/09/10 11:47:42;;;;;;;5.70;5.30;;;;;;;;;;5053418;28;20444;-75
2023/09/10 11:50:10;;;;;;;5.70;5.20;;;;;;;;;;5052694;28;20985;-76
2023/09/10 11:52:38;;;;;;;5.20;4.80;;;;;;;;;;5052864;28;20437;-76
2023/09/10 11:55:10;;;;;;;5.27;4.87;;;;;;;;;;5052675;28;20444;-77
2023/09/10 11:57:38;;;;;;;5.77;5.27;;;;;;;;;;5052812;28;20431;-77
2023/09/10 12:00:06;;;;;;;5.93;5.43;;;;;;;;;;5053216;28;20946;-76
2023/09/10 12:02:34;;;;;;;5.87;5.40;;;;;;;;;;5052687;28;20528;-76
2023/09/10 12:05:02;;;;;;;5.83;5.20;;;;;;;;;;5052913;28;20443;-77
2023/09/10 12:07:29;;;;;;;6.67;5.57;;;;;;;;;;5052007;28;20828;-75
2023/09/10 12:09:57;;;;;;;6.83;5.37;;;31.50;34.80;;;;;;5052451;28;20437;-75
2023/09/10 12:12:31;;;;;;;5.33;4.83;;;59.10;10.40;;;;;;5052171;28;20918;-76
2023/09/10 12:14:58;;;;;;;5.63;5.13;;;58.60;10.30;;;;;;5052673;28;20463;-76
2023/09/10 12:17:26;;;;;;;8.50;5.53;;;58.20;10.20;;;;;;5052896;28;20437;-76
2023/09/10 12:19:54;;;;;;;8.70;5.33;;;58.10;10.30;;;;;;5052878;28;20746;-76
2023/09/10 12:22:21;;;;;;;6.47;5.87;;;57.80;10.20;;;;;;5052890;28;20844;-75
2023/09/10 12:24:51;;;;;;;6.23;5.63;;;57.50;10.60;;;;;;5053108;28;20839;-76
2023/09/10 12:27:18;;;;;;;6.00;5.40;;;57.20;11.40;;;;;;5052419;28;20445;-76
2023/09/10 12:29:47;;;;;;;5.90;5.40;;;56.60;11.10;;;;;;5052510;28;21093;-74
2023/09/10 12:32:16;;;;;;;6.13;5.53;;;56.10;11.40;;;;;;5052988;28;20473;-74
2023/09/10 12:34:45;;;;;;;5.83;5.33;;;55.60;11.30;;;;;;5056256;28;20440;-75
2023/09/10 12:37:16;;;;;;;7.20;5.87;;;54.60;11.40;;;;;;5056295;28;20904;-74
2023/09/10 12:39:45;;;;;;;6.10;5.50;;;53.70;11.60;;;;;;5055752;28;20537;-75
2023/09/10 12:42:12;;;;;;;7.50;5.90;;;52.70;12.10;;;;;;5024400;28;22415;-75
2023/09/10 12:44:40;;;;;;;6.90;6.30;;;51.70;13.00;;;;;;5056301;28;20848;-75
2023/09/10 12:47:10;;;;;;;12.87;7.00;;;50.80;13.50;;;;;;5056254;28;20444;-75
2023/09/10 12:49:37;;;;;;;7.70;6.80;;;49.80;14.70;;;;;;5055997;28;20433;-74
2023/09/10 12:52:05;;;;;;;6.53;5.93;;;48.90;15.10;;;;;;5055798;28;20558;-74
2023/09/10 12:54:32;;;;;;;7.03;6.00;;;47.70;15.20;;;;;;5056007;28;20437;-74
2023/09/10 12:57:05;;;;;;;7.67;6.90;;;46.60;16.10;;;;;;5056064;28;20460;-74
2023/09/10 12:59:33;;;;;;;6.00;5.40;;;45.50;17.00;;;;;;5055985;28;20468;-74
2023/09/10 13:02:04;;;;;;;7.13;6.50;;;44.50;17.80;;;;;;5056084;28;20469;-74
2023/09/10 13:04:33;;;;;;;6.60;5.43;;;43.50;18.60;;;;;;5056077;28;20801;-74
2023/09/10 13:07:01;;;;;;;6.43;5.73;;;42.60;19.20;;;;;;5055645;28;20444;-74
2023/09/10 13:09:30;;;;;;;6.93;6.23;;;41.90;19.60;;;;;;5055641;28;20938;-74
2023/09/10 13:11:58;;;;;;;7.50;6.27;;;41.10;20.50;;;;;;5055374;28;20475;-74
2023/09/10 13:14:28;;;;;;;6.50;5.63;;;40.50;21.80;;;;;;5020422;28;20495;-73
2023/09/10 13:16:58;;;;;;;8.30;7.00;;;39.90;23.20;;;;;;5055484;28;20436;-74
2023/09/10 13:19:25;;;;;;;6.47;5.93;;;39.30;22.40;;;;;;5055737;28;20844;-78
2023/09/10 13:21:54;;;;;;;7.00;5.77;;;38.70;23.90;;;;;;5038078;28;20438;-76
2023/09/10 13:24:21;;;;;;;7.30;5.80;;;38.20;25.00;;;;;;5035754;28;20437;-73
2023/09/10 13:26:50;;;;;;;6.57;5.97;;;37.80;25.80;;;;;;5037214;28;20467;-74
2023/09/10 13:29:17;;;;;;;8.00;5.80;;;37.40;25.80;;;;;;5055468;28;20434;-73
2023/09/10 13:31:44;;;;;;;6.83;6.20;;;37.10;26.80;;;;;;5055277;28;20510;-73
2023/09/10 13:34:11;;;;;;;6.57;5.97;;;36.80;27.20;;;;;;5055224;28;20442;-74
2023/09/10 13:36:39;;;;;;;8.50;6.20;;;36.60;27.20;;;;;;5054907;28;20473;-74
2023/09/10 13:39:08;;;;;;;6.17;5.57;;;36.40;27.50;;;;;;5055316;28;20437;-73
2023/09/10 13:41:35;;;;;;;7.40;6.70;;;36.20;28.20;;;;;;5054784;28;20473;-74
2023/09/10 13:44:02;;;;;;;7.67;6.70;;;35.90;28.40;;;;;;5053920;28;20434;-74
2023/09/10 13:46:29;;;;;;;6.83;6.13;;;35.80;28.10;;;;;;5055203;28;20440;-73
2023/09/10 13:48:56;;;;;;;7.80;6.27;;;35.70;28.20;;;;;;5055041;28;20437;-74
2023/09/10 13:51:24;;;;;;;7.37;6.67;;;35.50;27.80;;;;;;5054725;28;20588;-75
2023/09/10 13:53:51;;;;;;;7.13;6.43;;;35.40;28.20;;;;;;5054869;28;20456;-74
2023/09/10 13:56:22;;;;;;;6.90;6.07;;;35.10;29.80;;;;;;5055031;28;20442;-74
2023/09/10 13:58:49;;;;;;;9.07;6.30;;;35.10;29.80;;;;;;5054518;28;20497;-74
2023/09/10 14:01:16;;;;;;;7.70;6.30;;;35.00;30.30;;;;;;5054547;28;20442;-74
2023/09/10 14:03:43;;;;;;;6.83;6.17;;;34.90;30.00;;;;;;5054760;28;20429;-74
2023/09/10 14:06:10;;;;;;;6.07;5.47;;;34.70;30.40;;;;;;5054922;28;20822;-73
2023/09/10 14:08:37;;;;;;;11.37;6.93;;;34.60;30.50;;;;;;5054797;28;20456;-74
2023/09/10 14:11:09;;;;;;;7.70;5.90;;;34.60;30.00;;;;;;5054693;28;20481;-74
2023/09/10 14:13:43;;;;;;;8.20;7.40;;;34.50;32.20;;;;;;5054747;28;20513;-74
2023/09/10 14:16:10;;;;;;;6.87;6.17;;;34.40;31.60;;;;;;5054808;28;20421;-74
2023/09/10 14:18:40;;;;;;;7.93;6.67;;;34.30;31.10;;;;;;5054235;28;20429;-74